Time;durP1;ratioP1;P1;durP2;ratioP2;P2;SDS_P1;SDS_P2;PMS_P1;PMS_P2;Temp;Humidity;BMP_temperature;BMP_pressure;BME280_temperature;BME280_humidity;BME280_pressure;Samples;Min_cycle;Max_cycle;Signal;HPM_P1;HPM_P2
2022/09/02 00:02:17;;;;;;;9.00;6.10;;;;;;;24.64;57.26;100835.56;5065314;28;20600;-61
2022/09/02 00:04:43;;;;;;;6.93;5.27;;;;;;;24.63;57.54;100832.00;5052534;28;20405;-60
2022/09/02 00:08:40;;;;;;;10.43;5.63;;;;;;;24.54;58.22;100828.16;5126832;27;20399;-61
2022/09/02 00:14:52;;;;;;;9.88;7.22;;;;;;;24.45;59.27;100832.41;5047594;28;20478;-61
2022/09/02 00:17:17;;;;;;;8.93;7.07;;;;;;;24.35;59.78;100830.44;5045366;28;20935;-60
2022/09/02 00:20:34;;;;;;;8.65;7.72;;;;;;;24.36;59.95;100832.06;5050411;28;20418;-60
2022/09/02 00:22:59;;;;;;;8.70;7.80;;;;;;;24.45;59.90;100832.41;5046609;28;20455;-62
2022/09/02 00:25:25;;;;;;;10.13;7.87;;;;;;;24.41;59.64;100834.81;5046167;28;20450;-61
2022/09/02 00:28:20;;;;;;;10.45;7.80;;;;;;;24.40;59.54;100836.72;5073060;28;20465;-61
2022/09/02 00:30:46;;;;;;;9.87;7.80;;;;;;;24.35;59.28;100831.25;5054884;28;20413;-61
2022/09/02 00:33:13;;;;;;;11.27;8.13;;;;;;;24.34;59.53;100836.94;5059522;28;20888;-62
2022/09/02 00:36:12;;;;;;;8.63;7.15;;;;;;;24.21;59.77;100830.88;5062547;28;20417;-61
2022/09/02 00:40:12;;;;;;;9.02;6.68;;;;;;;24.11;60.01;100836.22;5124839;27;20819;-59
2022/09/02 00:42:39;;;;;;;7.87;6.87;;;;;;;24.05;59.78;100848.88;5119484;27;20402;-59
2022/09/02 00:45:07;;;;;;;10.67;7.10;;;;;;;24.01;60.00;100839.63;5105940;28;20635;-60
2022/09/02 00:47:33;;;;;;;6.85;6.07;;;;;;;23.92;59.52;100837.66;5105439;28;20433;-59
2022/09/02 00:49:59;;;;;;;6.43;5.83;;;;;;;23.91;58.89;100833.31;5105702;28;20364;-62
2022/09/02 00:53:46;;;;;;;7.10;5.70;;;;;;;23.74;58.29;100841.50;5069485;27;20403;-60
2022/09/02 00:56:18;;;;;;;8.32;5.60;;;;;;;23.59;57.85;100834.84;5065209;28;20403;-61
2022/09/02 00:58:43;;;;;;;8.40;5.60;;;;;;;23.56;58.08;100838.06;5065216;28;20391;-60
2022/09/02 01:02:52;;;;;;;7.38;5.57;;;;;;;23.57;57.63;100831.59;5064484;28;20520;-63
2022/09/02 01:05:19;;;;;;;6.75;5.43;;;;;;;23.63;57.50;100837.88;5065604;28;20410;-63
2022/09/02 01:07:45;;;;;;;8.70;6.05;;;;;;;23.56;57.52;100842.66;5065708;28;20380;-62
2022/09/02 01:10:16;;;;;;;5.90;5.30;;;;;;;23.38;57.75;100839.22;5065521;28;20383;-60
2022/09/02 01:12:41;;;;;;;7.30;5.30;;;;;;;23.32;57.68;100836.69;5034933;28;20394;-60
2022/09/02 01:15:09;;;;;;;7.33;5.57;;;;;;;23.33;57.91;100827.50;5045127;28;20435;-61
2022/09/02 01:17:39;;;;;;;7.57;5.35;;;;;;;23.40;57.80;100833.56;5045185;28;20460;-59
2022/09/02 01:20:10;;;;;;;6.05;5.15;;;;;;;23.40;57.43;100837.06;5045655;28;20831;-59
2022/09/02 01:22:38;;;;;;;7.55;5.30;;;;;;;23.33;57.26;100841.03;5045115;28;20964;-61
2022/09/02 01:25:12;;;;;;;7.78;5.30;;;;;;;23.12;57.87;100837.25;5044923;28;20390;-62
2022/09/02 01:27:39;;;;;;;7.82;5.60;;;;;;;23.07;57.91;100848.84;5034046;28;20477;-59
2022/09/02 01:30:08;;;;;;;6.75;5.60;;;;;;;23.03;57.79;100842.25;5045855;28;20382;-60
2022/09/02 01:32:34;;;;;;;8.00;5.20;;;;;;;22.85;57.55;100838.78;5045300;28;20394;-60
2022/09/02 01:34:59;;;;;;;7.07;5.47;;;;;;;22.87;58.11;100838.53;5046208;28;20389;-60
2022/09/02 01:39:00;;;;;;;6.28;5.45;;;;;;;22.77;58.04;100831.09;5088462;27;20939;-60
2022/09/02 01:41:26;;;;;;;6.57;5.00;;;;;;;22.63;58.73;100825.19;5086831;28;20395;-60
2022/09/02 01:43:51;;;;;;;6.63;5.10;;;;;;;22.63;58.81;100830.59;5087905;28;20386;-60
2022/09/02 01:46:17;;;;;;;6.10;5.37;;;;;;;22.65;58.90;100825.78;5097452;28;20400;-60
2022/09/02 01:48:43;;;;;;;7.70;5.07;;;;;;;22.60;58.38;100825.72;5097131;28;20394;-60
2022/09/02 01:51:16;;;;;;;6.17;5.43;;;;;;;22.43;59.01;100820.31;5102522;28;20442;-60
2022/09/02 01:53:42;;;;;;;7.95;5.55;;;;;;;22.50;58.69;100822.84;5103870;28;20430;-60
2022/09/02 01:56:56;;;;;;;6.18;5.20;;;;;;;22.53;58.49;100830.47;5064640;28;20404;-60
2022/09/02 01:59:21;;;;;;;6.87;5.57;;;;;;;22.46;58.59;100819.00;5060838;28;20453;-62
2022/09/02 02:01:47;;;;;;;6.82;5.60;;;;;;;22.38;58.51;100825.63;5052233;28;20445;-60
2022/09/02 02:04:12;;;;;;;6.77;5.47;;;;;;;22.37;58.64;100823.19;5059952;28;20425;-59
2022/09/02 02:06:43;;;;;;;8.53;5.80;;;;;;;22.33;58.56;100828.28;5059411;28;20407;-61
2022/09/02 02:09:11;;;;;;;6.97;5.35;;;;;;;22.35;58.52;100831.53;5049080;28;20483;-63
2022/09/02 02:11:37;;;;;;;5.63;5.10;;;;;;;22.29;58.22;100835.22;5065580;28;20403;-60
2022/09/02 02:16:35;;;;;;;6.10;5.50;;;;;;;22.22;57.85;100831.81;5101278;27;20400;-60
2022/09/02 02:20:07;;;;;;;6.50;5.07;;;;;;;22.18;57.59;100834.19;5060971;28;20412;-61
2022/09/02 02:22:32;;;;;;;7.22;5.53;;;;;;;22.21;57.73;100841.00;5064292;28;20523;-60
2022/09/02 02:28:26;;;;;;;6.18;5.32;;;;;;;22.19;57.53;100851.22;5101522;27;20404;-60
2022/09/02 02:30:52;;;;;;;6.67;5.20;;;;;;;22.19;57.59;100849.34;5091647;28;20771;-60
2022/09/02 02:33:17;;;;;;;5.80;5.20;;;;;;;22.24;57.54;100852.13;5102671;28;20416;-61
2022/09/02 02:35:43;;;;;;;6.27;5.40;;;;;;;22.26;57.09;100841.94;5089750;28;20485;-60
2022/09/02 02:38:09;;;;;;;7.73;5.40;;;;;;;22.31;57.18;100841.19;5093172;28;20823;-61
2022/09/02 02:40:35;;;;;;;7.63;5.40;;;;;;;22.26;56.87;100841.09;5099074;28;20388;-61
2022/09/02 02:43:29;;;;;;;6.03;5.32;;;;;;;22.27;56.86;100831.94;5082845;27;20408;-60
2022/09/02 02:45:55;;;;;;;6.63;5.40;;;;;;;22.29;56.13;100836.03;5085435;28;20459;-60
2022/09/02 02:48:21;;;;;;;6.68;5.32;;;;;;;22.36;56.10;100846.66;5076089;28;20394;-61
2022/09/02 02:50:46;;;;;;;7.00;5.25;;;;;;;22.37;56.48;100851.00;5078552;28;20390;-60
2022/09/02 02:53:30;;;;;;;6.90;5.35;;;;;;;22.33;56.55;100839.06;5064962;28;20412;-59
2022/09/02 02:55:56;;;;;;;5.93;5.25;;;;;;;22.33;56.52;100839.88;5065745;28;20473;-59
2022/09/02 02:58:22;;;;;;;5.97;5.00;;;;;;;22.40;56.24;100847.00;5066114;28;20384;-59
2022/09/02 03:00:48;;;;;;;6.07;5.25;;;;;;;22.40;56.37;100838.88;5066203;28;20395;-60
2022/09/02 03:03:18;;;;;;;5.57;5.07;;;;;;;22.41;56.55;100845.94;5065821;28;20798;-59
2022/09/02 03:05:45;;;;;;;6.78;5.00;;;;;;;22.40;56.59;100845.13;5066172;28;20387;-59
2022/09/02 03:08:11;;;;;;;6.95;5.00;;;;;;;22.44;56.55;100843.56;5065553;28;20504;-59
2022/09/02 03:10:39;;;;;;;5.63;5.03;;;;;;;22.47;56.74;100844.94;5065905;28;20396;-60
2022/09/02 03:13:05;;;;;;;8.05;5.25;;;;;;;22.46;56.51;100841.44;5065876;28;20469;-60
2022/09/02 03:15:31;;;;;;;7.30;4.95;;;;;;;22.51;57.02;100838.00;5065322;28;20392;-60
2022/09/02 03:19:52;;;;;;;5.90;5.10;;;;;;;22.47;57.21;100836.84;5058407;28;20427;-60
2022/09/02 03:22:18;;;;;;;7.30;5.30;;;;;;;22.45;57.66;100830.88;5059901;28;20763;-60
2022/09/02 03:24:44;;;;;;;7.43;5.13;;;;;;;22.46;58.02;100829.81;5057819;28;20835;-60
2022/09/02 03:27:10;;;;;;;6.77;5.13;;;;;;;22.50;58.06;100836.34;5062300;28;20388;-60
2022/09/02 03:29:35;;;;;;;7.82;5.80;;;;;;;22.45;58.36;100831.69;5031358;28;20395;-58
2022/09/02 03:33:55;;;;;;;6.95;5.20;;;;;;;22.47;59.00;100831.44;5058234;28;20406;-60
2022/09/02 03:36:27;;;;;;;7.60;5.47;;;;;;;22.39;59.27;100821.06;5045192;28;20460;-63
2022/09/02 03:38:53;;;;;;;6.55;5.57;;;;;;;22.35;59.79;100830.72;5045659;28;20389;-62
2022/09/02 03:42:25;;;;;;;7.65;5.80;;;;;;;22.26;60.53;100831.13;5104851;27;20405;-60
2022/09/02 03:44:50;;;;;;;9.40;5.70;;;;;;;22.25;60.46;100832.16;5092331;28;20467;-59
2022/09/02 03:47:20;;;;;;;7.25;5.47;;;;;;;22.19;61.16;100833.13;5087744;28;20425;-62
2022/09/02 03:49:46;;;;;;;6.72;5.47;;;;;;;22.24;61.22;100840.50;5097799;28;20455;-60
2022/09/02 03:54:08;;;;;;;8.10;5.78;;;;;;;22.15;61.49;100840.09;5051042;28;20409;-60
2022/09/02 03:56:33;;;;;;;8.25;5.82;;;;;;;22.11;62.03;100838.91;5045214;28;20409;-60
2022/09/02 03:58:59;;;;;;;7.28;5.97;;;;;;;22.01;62.08;100839.56;5045595;28;20396;-61
2022/09/02 04:01:25;;;;;;;8.38;6.22;;;;;;;22.00;62.58;100845.22;5036004;28;20399;-60
2022/09/02 04:03:52;;;;;;;9.52;6.30;;;;;;;22.02;62.46;100849.31;5045758;28;20890;-63
2022/09/02 04:06:20;;;;;;;10.40;6.32;;;;;;;21.95;62.91;100835.97;5045543;28;20492;-59
2022/09/02 04:08:46;;;;;;;7.78;5.65;;;;;;;21.94;62.97;100828.94;5045413;28;20476;-63
2022/09/02 04:11:17;;;;;;;11.40;6.25;;;;;;;21.91;63.06;100826.72;5046232;28;20856;-60
2022/09/02 04:13:44;;;;;;;7.50;5.90;;;;;;;21.77;63.52;100822.69;5036348;28;20420;-60
2022/09/02 04:16:12;;;;;;;9.70;6.18;;;;;;;21.77;63.65;100818.09;5045672;28;20424;-60
2022/09/02 04:18:38;;;;;;;10.48;6.20;;;;;;;21.73;64.02;100825.06;5044536;28;20428;-62
2022/09/02 04:21:04;;;;;;;10.35;6.57;;;;;;;21.73;64.29;100827.75;5043586;28;20421;-61
2022/09/02 04:23:31;;;;;;;8.57;6.38;;;;;;;21.71;64.54;100834.44;5044013;28;20465;-61
2022/09/02 04:25:57;;;;;;;8.45;6.30;;;;;;;21.65;64.78;100841.63;5044777;28;20447;-61
2022/09/02 04:28:23;;;;;;;7.65;5.90;;;;;;;21.52;65.14;100848.13;5044026;28;20749;-60
2022/09/02 04:30:49;;;;;;;8.80;6.28;;;;;;;21.52;64.92;100855.41;5044275;28;20447;-66
2022/09/02 04:33:16;;;;;;;9.38;6.40;;;;;;;21.47;65.19;100858.81;5044711;28;20463;-60
2022/09/02 04:35:43;;;;;;;9.30;6.43;;;;;;;21.50;65.14;100857.50;5043800;28;20385;-61
2022/09/02 04:38:09;;;;;;;11.00;6.15;;;;;;;21.62;65.19;100860.97;5043181;28;20390;-61
2022/09/02 04:40:39;;;;;;;9.70;6.00;;;;;;;21.55;65.16;100866.53;5043325;28;20540;-63
2022/09/02 04:43:04;;;;;;;8.07;6.10;;;;;;;21.50;65.25;100863.72;5058377;28;20933;-65
2022/09/02 04:45:30;;;;;;;10.10;6.00;;;;;;;21.50;65.61;100865.59;5042718;28;20385;-61
2022/09/02 04:47:56;;;;;;;8.23;6.00;;;;;;;21.54;65.37;100853.28;5043245;28;20401;-63
2022/09/02 04:50:21;;;;;;;9.77;5.77;;;;;;;21.62;65.08;100865.56;5044095;28;20390;-61
2022/09/02 04:52:46;;;;;;;9.77;5.90;;;;;;;21.58;65.65;100862.53;5043965;28;20514;-60
2022/09/02 04:55:12;;;;;;;7.73;6.07;;;;;;;21.68;65.45;100869.97;5043304;28;20386;-61
2022/09/02 04:57:38;;;;;;;9.73;6.10;;;;;;;21.50;65.83;100862.88;5044295;28;20840;-61
2022/09/02 05:00:06;;;;;;;9.75;6.38;;;;;;;21.58;65.81;100862.53;5044705;28;20884;-61
2022/09/02 05:02:32;;;;;;;7.72;5.45;;;;;;;21.58;65.79;100859.81;5034875;28;20401;-62
2022/09/02 05:04:57;;;;;;;7.90;5.50;;;;;;;21.50;65.91;100862.88;5034049;28;20389;-60
2022/09/02 05:07:23;;;;;;;6.47;4.63;;;;;;;21.39;66.19;100862.66;5029491;28;20828;-61
2022/09/02 05:09:48;;;;;;;5.37;4.00;;;;;;;21.47;66.28;100874.97;5029871;28;20429;-62
2022/09/02 05:13:29;;;;;;;4.30;3.35;;;;;;;21.26;66.50;100859.41;5045445;28;20414;-62
2022/09/02 05:15:54;;;;;;;4.97;3.40;;;;;;;21.17;67.12;100870.53;5044576;28;20459;-62
2022/09/02 05:18:20;;;;;;;5.32;2.70;;;;;;;21.24;66.41;100881.22;5043474;28;20425;-67
2022/09/02 05:21:45;;;;;;;4.50;2.30;;;;;;;21.27;66.23;100891.53;5047431;28;20933;-60
2022/09/02 05:24:11;;;;;;;3.03;1.70;;;;;;;20.98;66.29;100888.75;5064769;28;20449;-61
2022/09/02 05:26:37;;;;;;;5.32;1.92;;;;;;;20.93;66.19;100883.22;5055785;28;20397;-60
2022/09/02 05:29:07;;;;;;;3.13;1.95;;;;;;;20.82;66.41;100889.44;5051308;28;20394;-60
2022/09/02 05:31:33;;;;;;;3.08;1.85;;;;;;;20.74;66.46;100896.00;5056921;28;20402;-60
2022/09/02 05:33:59;;;;;;;3.45;1.80;;;;;;;20.79;66.10;100892.59;5049643;28;20381;-60
2022/09/02 05:36:24;;;;;;;2.63;2.00;;;;;;;20.73;66.05;100918.59;5046497;28;20390;-60
2022/09/02 05:38:50;;;;;;;3.47;2.23;;;;;;;20.75;66.21;100883.34;5046818;28;20914;-61
2022/09/02 05:41:22;;;;;;;3.28;2.50;;;;;;;20.61;66.27;100893.50;5046738;28;20504;-60
2022/09/02 05:43:49;;;;;;;5.20;2.30;;;;;;;20.72;66.23;100895.41;5046792;28;20392;-59
2022/09/02 05:46:16;;;;;;;4.43;2.60;;;;;;;20.84;65.92;100894.59;5047955;28;20401;-59
2022/09/02 05:51:29;;;;;;;4.80;2.87;;;;;;;20.84;65.26;100898.09;5044766;28;20441;-60
2022/09/02 05:53:56;;;;;;;5.88;3.17;;;;;;;20.72;65.31;100911.56;5059300;28;20396;-60
2022/09/02 05:56:22;;;;;;;6.55;3.58;;;;;;;20.70;65.24;100916.38;5058557;28;20710;-60
2022/09/02 05:58:48;;;;;;;6.32;3.25;;;;;;;20.56;65.54;100912.22;5055046;28;20482;-60
2022/09/02 06:01:15;;;;;;;6.55;3.67;;;;;;;20.65;65.31;100907.34;5050584;28;20938;-62
2022/09/02 06:03:41;;;;;;;9.45;4.50;;;;;;;20.62;65.21;100914.84;5062943;28;20485;-61
2022/09/02 06:06:07;;;;;;;6.07;3.80;;;;;;;20.60;65.07;100910.72;5060052;28;20481;-59
2022/09/02 06:08:33;;;;;;;6.43;3.87;;;;;;;20.69;65.10;100925.50;5055703;28;20439;-60
2022/09/02 06:11:02;;;;;;;6.53;3.60;;;;;;;20.68;64.88;100920.34;5052894;28;20447;-60
2022/09/02 06:13:34;;;;;;;5.78;3.85;;;;;;;20.70;64.89;100924.44;5047214;28;20394;-61
2022/09/02 06:16:00;;;;;;;5.90;3.75;;;;;;;20.61;64.97;100926.66;5060462;28;20390;-60
2022/09/02 06:18:27;;;;;;;6.55;3.35;;;;;;;20.58;64.65;100935.19;5048347;28;20433;-60
2022/09/02 06:20:53;;;;;;;6.95;3.50;;;;;;;20.71;64.56;100934.19;5057306;28;20428;-60
2022/09/02 06:23:19;;;;;;;6.82;3.92;;;;;;;20.73;64.64;100926.69;5049946;28;20389;-59
2022/09/02 06:25:47;;;;;;;4.13;3.42;;;;;;;20.78;64.34;100932.19;5062638;28;20388;-59
2022/09/02 06:28:14;;;;;;;5.57;3.50;;;;;;;20.73;64.20;100942.84;5062631;28;20380;-58
2022/09/02 06:30:42;;;;;;;6.45;3.45;;;;;;;20.73;64.02;100934.75;5054243;28;20403;-60
2022/09/02 06:33:09;;;;;;;8.00;3.60;;;;;;;20.71;64.36;100928.78;5045388;28;20477;-59
2022/09/02 06:35:41;;;;;;;6.15;3.50;;;;;;;20.68;64.06;100942.72;5048794;28;20400;-61
2022/09/02 06:38:07;;;;;;;4.45;3.10;;;;;;;20.55;63.99;100932.13;5033273;28;20437;-59
2022/09/02 06:40:33;;;;;;;6.90;2.97;;;;;;;20.60;63.66;100954.63;5033505;28;20422;-60
2022/09/02 06:42:59;;;;;;;6.10;3.00;;;;;;;20.58;63.58;100942.41;5034158;28;20405;-59
2022/09/02 06:45:24;;;;;;;6.65;3.10;;;;;;;20.47;63.72;100940.53;5033202;28;20394;-59
2022/09/02 06:47:52;;;;;;;5.28;3.20;;;;;;;20.44;63.36;100937.25;5033233;28;20446;-59
2022/09/02 06:50:18;;;;;;;5.13;2.92;;;;;;;20.47;63.35;100945.91;5038538;28;20778;-59
2022/09/02 06:52:43;;;;;;;7.78;3.28;;;;;;;20.39;63.69;100947.88;5041263;28;20397;-60
2022/09/02 06:55:09;;;;;;;3.63;3.03;;;;;;;20.44;63.50;100948.03;5034204;28;20386;-60
2022/09/02 06:57:36;;;;;;;5.93;3.20;;;;;;;20.48;63.47;100947.56;5048413;28;20827;-59
2022/09/02 07:00:07;;;;;;;4.18;3.33;;;;;;;20.50;63.19;100973.19;5036141;28;20442;-59
2022/09/02 07:02:33;;;;;;;5.70;3.30;;;;;;;20.51;63.20;100966.78;5042847;28;20780;-58
2022/09/02 07:05:14;;;;;;;5.65;2.70;;;;;;;20.45;63.31;100956.91;5034639;28;20408;-59
2022/09/02 07:07:42;;;;;;;5.13;3.00;;;;;;;20.40;63.00;100963.00;5047833;28;20393;-57
2022/09/02 07:10:11;;;;;;;4.80;3.17;;;;;;;20.48;63.31;100966.41;5046452;28;20401;-61
2022/09/02 07:12:38;;;;;;;5.88;3.30;;;;;;;20.49;63.39;100970.75;5038718;28;20481;-59
2022/09/02 07:15:05;;;;;;;5.93;3.20;;;;;;;20.50;63.15;100972.41;5038406;28;20434;-62
2022/09/02 07:17:31;;;;;;;5.57;3.03;;;;;;;20.40;63.37;100970.22;5047320;28;20751;-60
2022/09/02 07:19:59;;;;;;;5.80;3.47;;;;;;;20.43;63.26;100967.09;5045104;28;20425;-60
2022/09/02 07:22:27;;;;;;;6.22;3.00;;;;;;;20.50;62.73;100981.28;5032670;28;20445;-59
2022/09/02 07:24:54;;;;;;;5.82;3.17;;;;;;;20.50;62.68;100973.19;5037311;28;20823;-61
2022/09/02 07:27:19;;;;;;;5.65;3.40;;;;;;;20.52;62.69;100975.66;5046018;28;20989;-58
2022/09/02 07:29:47;;;;;;;5.20;3.10;;;;;;;20.47;62.70;100979.03;5034093;28;20481;-59
2022/09/02 07:32:17;;;;;;;10.00;3.00;;;;;;;20.52;62.49;100981.06;5044782;28;20401;-60
2022/09/02 07:34:43;;;;;;;3.58;2.88;;;;;;;20.51;62.85;100971.31;5038919;28;20884;-60
2022/09/02 07:37:09;;;;;;;6.78;3.20;;;;;;;20.66;62.63;100979.03;5032822;28;20394;-59
2022/09/02 07:39:34;;;;;;;7.30;3.25;;;;;;;20.65;62.21;100975.50;5030481;28;20393;-59
2022/09/02 07:42:00;;;;;;;4.57;3.20;;;;;;;20.86;61.94;100984.09;5030744;28;20394;-60
2022/09/02 07:44:27;;;;;;;4.93;3.42;;;;;;;20.92;62.30;100985.84;5030129;28;20390;-60
2022/09/02 07:46:52;;;;;;;6.07;3.45;;;;;;;20.85;62.09;100993.22;5031004;28;20792;-60
2022/09/02 07:49:19;;;;;;;5.50;3.40;;;;;;;20.81;62.02;100982.94;5029969;28;20901;-60
2022/09/02 07:51:48;;;;;;;6.03;3.03;;;;;;;20.76;61.98;100981.97;5030655;28;20438;-59
2022/09/02 07:54:15;;;;;;;5.15;3.20;;;;;;;20.83;61.72;100981.88;5030767;28;20433;-60
2022/09/02 07:56:42;;;;;;;5.03;3.25;;;;;;;20.89;61.71;100992.53;5030706;28;20394;-60
2022/09/02 07:59:07;;;;;;;5.97;3.15;;;;;;;20.88;62.03;100988.19;5030748;28;20383;-59
2022/09/02 08:01:33;;;;;;;6.80;3.13;;;;;;;21.00;62.19;101001.69;5029820;28;20433;-59
2022/09/02 08:03:59;;;;;;;4.32;3.25;;;;;;;21.03;61.63;100984.22;5030239;28;20394;-60
2022/09/02 08:06:26;;;;;;;4.80;3.23;;;;;;;21.09;61.55;100988.72;5030315;28;20394;-61
2022/09/02 08:08:52;;;;;;;5.43;3.40;;;;;;;21.10;61.53;100990.34;5030445;28;20395;-60
2022/09/02 08:11:18;;;;;;;6.23;3.37;;;;;;;20.95;61.42;100994.31;5030537;28;20406;-60
2022/09/02 08:13:44;;;;;;;5.05;3.45;;;;;;;20.85;61.89;101009.41;5029996;28;20390;-60
2022/09/02 08:16:10;;;;;;;7.63;3.53;;;;;;;20.74;61.53;100986.75;5029921;28;20397;-60
2022/09/02 08:18:36;;;;;;;4.05;3.25;;;;;;;20.80;61.40;100999.31;5030276;28;20523;-60
2022/09/02 08:21:02;;;;;;;6.45;3.42;;;;;;;20.74;61.50;101003.78;5030304;28;20462;-60
2022/09/02 08:23:27;;;;;;;5.10;3.57;;;;;;;20.72;61.71;100992.38;5029936;28;20510;-60
2022/09/02 08:25:53;;;;;;;6.07;3.33;;;;;;;20.62;61.72;100990.25;5029652;28;20390;-60
2022/09/02 08:28:18;;;;;;;6.20;3.77;;;;;;;20.56;62.43;101003.78;5029475;28;20407;-60
2022/09/02 08:30:44;;;;;;;5.07;3.37;;;;;;;20.49;62.08;100995.81;5029825;28;20401;-60
2022/09/02 08:33:10;;;;;;;5.63;3.50;;;;;;;20.55;62.27;101004.84;5030024;28;20402;-60
2022/09/02 08:35:36;;;;;;;4.20;3.40;;;;;;;20.55;62.64;100986.81;5029697;28;20398;-60
2022/09/02 08:38:01;;;;;;;4.38;3.20;;;;;;;20.61;63.06;100998.56;5028868;28;20401;-61
2022/09/02 08:40:35;;;;;;;6.33;3.70;;;;;;;20.60;63.11;100986.94;5029483;28;20426;-61
2022/09/02 08:43:02;;;;;;;11.57;3.60;;;;;;;20.68;62.67;100987.69;5029884;28;20390;-60
2022/09/02 08:45:36;;;;;;;4.70;3.57;;;;;;;20.66;62.38;100985.22;5029876;28;20398;-60
2022/09/02 08:48:29;;;;;;;5.07;3.60;;;;;;;20.60;62.88;100991.53;5029361;28;20402;-61
2022/09/02 08:51:02;;;;;;;7.30;3.67;;;;;;;20.59;62.61;100996.06;5029678;28;20390;-60
2022/09/02 08:53:35;;;;;;;5.35;3.50;;;;;;;20.67;62.57;100996.81;5029665;28;20544;-60
2022/09/02 08:56:04;;;;;;;6.37;3.67;;;;;;;20.61;62.88;101003.94;5029214;28;20408;-60
2022/09/02 08:58:39;;;;;;;7.03;3.55;;;;;;;20.49;62.34;101003.91;5029389;28;20424;-60
2022/09/02 09:01:26;;;;;;;6.65;3.95;;;;;;;20.42;62.35;101005.84;5029479;28;20425;-60
2022/09/02 09:04:15;;;;;;;4.80;3.65;;;;;;;20.39;62.61;100998.22;5029021;28;20496;-62
2022/09/02 09:06:40;;;;;;;7.63;3.70;;;;;;;20.48;62.64;101006.81;5029039;28;20925;-60
2022/09/02 09:09:18;;;;;;;5.93;3.83;;;;;;;20.39;62.91;101017.88;5029374;28;20397;-60
2022/09/02 09:12:35;;;;;;;6.22;3.60;;;;;;;20.37;62.78;101001.16;5086573;27;2108367;-60
2022/09/02 09:15:20;;;;;;;6.20;3.75;;;;;;;20.38;62.57;101024.34;5147142;27;20408;-60
2022/09/02 09:17:53;;;;;;;7.03;3.47;;;;;;;20.41;62.56;101009.59;5129793;27;20410;-60
2022/09/02 09:20:26;;;;;;;6.70;3.40;;;;;;;20.35;62.94;101015.91;5137268;27;20397;-64
2022/09/02 09:22:55;;;;;;;6.78;3.50;;;;;;;20.32;62.93;101010.97;5138278;27;20390;-60
2022/09/02 09:25:28;;;;;;;5.35;3.50;;;;;;;20.45;62.08;101008.06;5145133;27;20389;-60
2022/09/02 09:28:00;;;;;;;5.40;3.75;;;;;;;20.51;61.79;101006.34;5133538;27;20477;-59
2022/09/02 09:30:26;;;;;;;6.43;4.10;;;;;;;20.53;61.92;100999.69;5133232;27;20941;-60
2022/09/02 09:32:54;;;;;;;5.40;3.63;;;;;;;20.46;61.82;101008.91;5138019;27;20391;-60
2022/09/02 09:35:20;;;;;;;8.05;3.50;;;;;;;20.41;61.91;101002.31;5129687;27;20453;-60
2022/09/02 09:37:51;;;;;;;4.73;3.80;;;;;;;20.47;62.23;101010.53;5139796;27;20396;-61
2022/09/02 09:40:19;;;;;;;7.25;3.60;;;;;;;20.43;62.52;101008.28;5131649;27;20824;-62
2022/09/02 09:42:54;;;;;;;7.23;3.50;;;;;;;20.51;62.20;101000.94;5146303;27;20391;-60
2022/09/02 09:45:30;;;;;;;7.03;4.17;;;;;;;20.59;62.06;100997.94;5146184;27;20400;-60
2022/09/02 09:48:15;;;;;;;6.43;3.90;;;;;;;20.68;61.52;101009.25;5144197;27;20391;-60
2022/09/02 09:53:27;;;;;;;7.07;3.92;;;;;;;20.62;61.62;100992.13;5052450;28;20487;-60
2022/09/02 09:56:01;;;;;;;6.03;3.80;;;;;;;20.71;61.61;100998.84;5030029;28;20449;-60
2022/09/02 09:58:38;;;;;;;5.70;3.85;;;;;;;20.74;61.34;100997.53;5013572;28;20426;-61
2022/09/02 10:01:18;;;;;;;8.38;3.50;;;;;;;20.70;61.67;100993.66;5036986;28;20405;-60
2022/09/02 10:04:23;;;;;;;6.00;3.97;;;;;;;20.72;61.57;101003.16;5030461;28;20473;-58
2022/09/02 10:06:49;;;;;;;5.65;3.80;;;;;;;20.78;61.47;100996.03;5024210;28;20481;-59
2022/09/02 10:09:18;;;;;;;7.07;3.70;;;;;;;20.81;61.73;101003.66;5034061;28;20475;-59
2022/09/02 10:12:12;;;;;;;7.32;4.20;;;;;;;20.73;61.56;100993.22;5030509;28;20458;-60
2022/09/02 10:14:49;;;;;;;5.10;4.10;;;;;;;20.72;62.01;100994.25;5018055;28;20419;-60
2022/09/02 10:17:39;;;;;;;9.70;3.75;;;;;;;20.79;61.91;100995.78;5038488;28;20476;-59
2022/09/02 10:20:35;;;;;;;7.18;4.05;;;;;;;20.71;61.39;101003.41;5041920;28;20491;-61
2022/09/02 10:23:12;;;;;;;6.00;4.40;;;;;;;20.79;61.68;101000.38;5033924;28;20409;-61
2022/09/02 10:25:41;;;;;;;6.70;4.00;;;;;;;20.75;61.44;100991.91;5042763;28;20451;-60
2022/09/02 10:28:25;;;;;;;8.00;3.90;;;;;;;20.65;61.79;100988.97;5029078;28;20411;-61
2022/09/02 10:31:19;;;;;;;5.95;4.03;;;;;;;20.60;61.57;100995.03;5044273;28;20887;-60
2022/09/02 10:34:09;;;;;;;8.73;4.20;;;;;;;20.68;61.64;100993.91;5030338;28;20438;-60
2022/09/02 10:36:40;;;;;;;6.50;3.95;;;;;;;20.63;61.87;100993.75;5017407;28;20397;-60
2022/09/02 10:39:28;;;;;;;6.95;4.25;;;;;;;20.69;61.74;100997.41;5038895;28;20392;-60
2022/09/02 10:42:05;;;;;;;5.43;3.90;;;;;;;20.74;61.45;100984.91;5042060;28;20896;-60
2022/09/02 10:44:54;;;;;;;7.43;4.00;;;;;;;20.82;62.05;100989.13;5027240;28;20395;-60
2022/09/02 10:47:36;;;;;;;5.72;3.95;;;;;;;20.95;61.99;100991.59;5034210;28;20410;-61
2022/09/02 10:50:43;;;;;;;4.65;3.65;;;;;;;20.87;61.69;100996.50;5029476;28;20421;-60
2022/09/02 10:53:26;;;;;;;6.28;4.18;;;;;;;20.95;61.64;100999.69;5016944;28;20427;-62
2022/09/02 10:56:15;;;;;;;5.28;3.80;;;;;;;20.93;61.36;101001.81;5042044;28;20484;-60
2022/09/02 10:59:22;;;;;;;6.03;4.20;;;;;;;20.93;61.10;101004.50;5014397;28;20456;-60
2022/09/02 11:01:58;;;;;;;7.33;4.03;;;;;;;20.94;61.11;100997.22;5041245;28;20397;-60
2022/09/02 11:04:29;;;;;;;6.72;4.20;;;;;;;20.96;60.90;101011.31;5028195;28;20400;-60
2022/09/02 11:06:57;;;;;;;7.13;4.18;;;;;;;20.88;61.47;101011.63;5013507;28;20392;-60
2022/09/02 11:09:36;;;;;;;5.93;4.05;;;;;;;20.80;61.30;101015.50;5024735;28;20386;-60
2022/09/02 11:12:08;;;;;;;5.35;3.80;;;;;;;20.85;61.05;101015.63;5028977;28;20418;-60
2022/09/02 11:14:57;;;;;;;5.50;3.75;;;;;;;20.86;61.04;101014.56;5004300;28;20452;-61
2022/09/02 11:17:31;;;;;;;5.60;3.70;;;;;;;20.87;60.65;101018.06;5020833;28;20917;-60
2022/09/02 11:20:25;;;;;;;6.93;4.18;;;;;;;20.85;60.55;101022.88;5028156;28;20875;-60
2022/09/02 11:23:18;;;;;;;5.78;3.90;;;;;;;20.80;60.51;101010.09;5008303;28;20417;-60
2022/09/02 11:25:47;;;;;;;7.32;3.90;;;;;;;20.84;60.68;101013.97;5030146;28;20991;-60
2022/09/02 11:28:47;;;;;;;5.32;4.00;;;;;;;20.88;61.04;101020.53;5016261;28;20424;-60
2022/09/02 11:31:43;;;;;;;5.97;3.75;;;;;;;20.93;60.87;101019.84;5006306;28;20412;-60
2022/09/02 11:34:42;;;;;;;5.33;3.53;;;;;;;21.03;60.90;101013.88;5018233;28;20387;-60
2022/09/02 11:37:10;;;;;;;7.27;3.67;;;;;;;21.15;60.76;101009.31;5024331;28;20406;-60
2022/09/02 11:39:45;;;;;;;5.78;4.30;;;;;;;21.13;60.18;101017.66;5031752;28;20433;-60
2022/09/02 11:42:26;;;;;;;6.30;4.13;;;;;;;21.08;60.67;101008.63;5013590;28;20398;-61
2022/09/02 11:45:28;;;;;;;5.68;3.90;;;;;;;21.10;60.74;101017.28;4996064;28;20392;-60
2022/09/02 11:48:32;;;;;;;6.80;4.00;;;;;;;21.10;60.94;101012.72;4998492;28;20388;-59
2022/09/02 11:51:06;;;;;;;5.30;3.83;;;;;;;21.11;60.82;101008.97;5008434;28;20422;-60
2022/09/02 11:53:39;;;;;;;8.40;3.90;;;;;;;21.11;60.95;101011.66;5002317;28;20395;-59
2022/09/02 11:56:34;;;;;;;9.38;4.30;;;;;;;21.08;60.94;101014.00;5006142;28;20396;-60
2022/09/02 11:59:00;;;;;;;6.70;3.90;;;;;;;21.09;60.72;101007.56;5000251;28;20393;-59
2022/09/02 12:01:28;;;;;;;7.47;4.10;;;;;;;21.16;60.64;101013.69;4996838;28;20475;-59
2022/09/02 12:04:02;;;;;;;5.88;4.00;;;;;;;21.26;60.97;101015.78;5005721;28;20402;-60
2022/09/02 12:06:28;;;;;;;7.57;4.32;;;;;;;21.13;60.77;101006.88;4996395;28;20872;-60
2022/09/02 12:08:53;;;;;;;5.63;4.20;;;;;;;21.19;61.26;101019.44;4996202;28;20386;-60
2022/09/02 12:11:40;;;;;;;7.40;4.03;;;;;;;21.26;61.02;101016.59;4998329;28;20421;-60
2022/09/02 12:14:10;;;;;;;5.57;4.05;;;;;;;21.35;61.19;101015.19;5000341;28;20399;-61
2022/09/02 12:16:44;;;;;;;6.15;4.20;;;;;;;21.43;60.78;101019.44;4993058;28;20456;-60